Time;durP1;ratioP1;P1;durP2;ratioP2;P2;SDS_P1;SDS_P2;PMS_P1;PMS_P2;Temp;Humidity;BMP_temperature;BMP_pressure;BME280_temperature;BME280_humidity;BME280_pressure;Samples;Min_cycle;Max_cycle;Signal;HPM_P1;HPM_P2
2021/12/20 00:00:38;;;;;;;3.17;2.17;;;0.60;99.90;;;;;;5014758;28;20124;-88
2021/12/20 00:03:04;;;;;;;3.20;2.22;;;0.60;99.90;;;;;;4999748;28;20042;-87
2021/12/20 00:05:30;;;;;;;2.47;1.80;;;0.60;99.90;;;;;;5017184;28;20091;-89
2021/12/20 00:07:56;;;;;;;2.92;1.90;;;0.60;99.90;;;;;;5014501;28;20050;-89
2021/12/20 00:10:22;;;;;;;2.17;1.73;;;0.60;99.90;;;;;;5014392;28;20045;-89
2021/12/20 00:12:49;;;;;;;2.85;1.80;;;0.60;99.90;;;;;;4997982;28;20360;-88
2021/12/20 00:15:17;;;;;;;2.30;1.60;;;0.60;99.90;;;;;;5014451;28;20138;-88
2021/12/20 00:17:44;;;;;;;3.83;1.88;;;0.70;99.90;;;;;;5014405;28;20120;-88
2021/12/20 00:20:10;;;;;;;2.97;1.67;;;0.70;99.90;;;;;;5015624;28;20037;-88
2021/12/20 00:22:36;;;;;;;2.95;1.40;;;0.70;99.90;;;;;;5014568;28;20065;-88
2021/12/20 00:25:04;;;;;;;3.15;1.70;;;0.70;99.90;;;;;;5014017;28;20057;-88
2021/12/20 00:27:30;;;;;;;2.72;1.92;;;0.80;99.90;;;;;;5015878;28;20117;-88
2021/12/20 00:29:56;;;;;;;4.35;2.40;;;0.80;99.90;;;;;;4998423;28;20064;-88
2021/12/20 00:32:22;;;;;;;13.32;8.57;;;0.80;99.90;;;;;;5017403;28;20041;-89
2021/12/20 00:34:48;;;;;;;22.60;12.30;;;0.80;99.90;;;;;;5015287;28;20037;-88
2021/12/20 00:42:44;;;;;;;14.27;7.90;;;0.90;99.90;;;;;;5015217;28;20053;-88
2021/12/20 00:45:11;;;;;;;13.88;6.97;;;1.00;99.90;;;;;;5015349;28;20048;-88
2021/12/20 00:47:38;;;;;;;12.15;5.95;;;1.00;99.90;;;;;;5013028;28;20085;-88
2021/12/20 00:50:06;;;;;;;7.80;4.25;;;1.00;99.90;;;;;;5013768;28;20070;-88
2021/12/20 00:52:31;;;;;;;7.38;4.20;;;1.10;99.90;;;;;;5013579;28;20084;-89
2021/12/20 00:54:57;;;;;;;6.35;3.70;;;1.10;99.90;;;;;;5015149;28;20516;-89
2021/12/20 00:57:23;;;;;;;5.20;3.33;;;1.10;99.90;;;;;;5013404;28;20461;-89
2021/12/20 00:59:49;;;;;;;5.22;3.10;;;1.10;99.90;;;;;;5015156;28;20400;-88
2021/12/20 01:02:15;;;;;;;5.15;2.75;;;1.10;99.90;;;;;;5013127;28;20038;-89
2021/12/20 01:04:41;;;;;;;3.83;2.58;;;1.00;99.90;;;;;;5014226;28;20038;-88
2021/12/20 01:07:07;;;;;;;3.88;2.50;;;1.00;99.90;;;;;;5014690;28;20041;-89
2021/12/20 01:09:32;;;;;;;3.67;2.22;;;1.00;99.90;;;;;;4996903;28;20038;-88
2021/12/20 01:12:06;;;;;;;3.42;2.10;;;0.90;99.90;;;;;;5014291;28;20384;-88
2021/12/20 01:14:35;;;;;;;2.70;1.88;;;0.90;99.90;;;;;;5013317;28;20038;-89
2021/12/20 01:17:05;;;;;;;3.50;1.85;;;0.80;99.90;;;;;;5013301;28;20464;-87
2021/12/20 01:19:33;;;;;;;3.90;1.67;;;0.80;99.90;;;;;;4997111;28;20073;-87
2021/12/20 01:21:59;;;;;;;2.85;1.95;;;0.70;99.90;;;;;;5014898;28;20084;-86
2021/12/20 01:24:25;;;;;;;2.97;2.08;;;0.70;99.90;;;;;;5013440;28;20037;-86
2021/12/20 01:26:51;;;;;;;3.83;2.20;;;0.60;99.90;;;;;;5013231;28;20034;-88
2021/12/20 01:29:17;;;;;;;2.67;1.90;;;0.50;99.90;;;;;;5016620;28;20456;-87
2021/12/20 01:31:44;;;;;;;2.65;1.90;;;0.60;99.90;;;;;;5033478;28;20468;-85
2021/12/20 01:34:10;;;;;;;4.03;1.98;;;0.60;99.90;;;;;;5033576;28;20388;-86
2021/12/20 01:36:36;;;;;;;2.65;1.65;;;0.60;99.90;;;;;;5033853;28;20030;-86
2021/12/20 01:39:03;;;;;;;3.38;1.95;;;0.60;99.90;;;;;;5034488;28;20034;-87
2021/12/20 01:41:29;;;;;;;3.47;1.90;;;0.70;99.90;;;;;;5016420;28;20095;-87
2021/12/20 01:43:55;;;;;;;2.08;1.50;;;0.70;99.90;;;;;;5016496;28;20053;-87
2021/12/20 01:46:22;;;;;;;3.33;1.92;;;0.70;99.90;;;;;;5033705;28;20439;-87
2021/12/20 01:48:48;;;;;;;3.03;2.00;;;0.80;99.90;;;;;;5016300;28;20037;-88
2021/12/20 01:51:44;;;;;;;3.17;1.50;;;0.80;99.90;;;;;;5016413;28;20040;-89
2021/12/20 01:54:10;;;;;;;2.20;1.80;;;0.80;99.90;;;;;;5033973;28;20387;-87
2021/12/20 01:56:40;;;;;;;2.53;1.83;;;0.80;99.90;;;;;;5033897;28;20029;-87
2021/12/20 01:59:07;;;;;;;5.10;2.88;;;0.80;99.90;;;;;;5035431;28;20033;-88
2021/12/20 02:01:34;;;;;;;4.20;2.55;;;0.70;99.90;;;;;;5038475;28;20037;-87
2021/12/20 02:04:03;;;;;;;3.63;2.70;;;0.70;99.90;;;;;;5019707;28;20116;-89
2021/12/20 02:06:34;;;;;;;4.18;2.95;;;0.70;99.90;;;;;;5020598;28;20041;-86
2021/12/20 02:09:04;;;;;;;4.90;3.38;;;0.70;99.90;;;;;;5037300;28;20034;-88
2021/12/20 02:11:29;;;;;;;2.88;2.33;;;0.60;99.90;;;;;;5020659;28;20029;-87
2021/12/20 02:13:56;;;;;;;4.03;2.90;;;0.60;99.90;;;;;;5037662;28;20167;-87
2021/12/20 02:16:22;;;;;;;3.22;2.78;;;0.60;99.90;;;;;;5019881;28;20562;-87
2021/12/20 02:18:48;;;;;;;4.78;3.13;;;0.60;99.90;;;;;;5036289;28;20128;-87
2021/12/20 02:21:14;;;;;;;4.97;3.30;;;0.50;99.90;;;;;;5037327;28;20030;-88
2021/12/20 02:23:40;;;;;;;4.63;3.00;;;0.50;99.90;;;;;;5019445;28;20089;-87
2021/12/20 02:26:06;;;;;;;3.97;2.75;;;0.50;99.90;;;;;;5037161;28;20030;-88
2021/12/20 02:28:40;;;;;;;3.75;2.60;;;0.50;99.90;;;;;;5020104;28;20472;-86
2021/12/20 02:39:13;;;;;;;4.15;2.92;;;0.60;99.90;;;;;;5037958;28;20052;-88
2021/12/20 02:41:39;;;;;;;3.22;2.10;;;0.60;99.90;;;;;;5019984;28;20057;-87
2021/12/20 02:44:10;;;;;;;3.58;2.33;;;0.60;99.90;;;;;;5037058;28;20506;-86
2021/12/20 02:49:06;;;;;;;1.65;1.50;;;0.70;99.90;;;;;;5037110;28;20038;-87
2021/12/20 02:51:33;;;;;;;1.80;1.25;;;0.80;99.90;;;;;;5019497;28;20042;-88
2021/12/20 02:54:03;;;;;;;2.20;1.40;;;0.80;99.90;;;;;;5036760;28;20149;-86
2021/12/20 02:56:29;;;;;;;2.50;1.58;;;0.80;99.90;;;;;;5019134;28;20400;-84
2021/12/20 02:58:54;;;;;;;1.67;1.42;;;0.90;99.90;;;;;;5036629;28;20045;-85
2021/12/20 03:01:21;;;;;;;1.73;1.20;;;0.90;99.90;;;;;;5019094;28;20368;-84
2021/12/20 03:03:49;;;;;;;1.90;1.30;;;0.90;99.90;;;;;;5036270;28;20064;-84
2021/12/20 03:06:26;;;;;;;1.50;1.30;;;1.00;99.90;;;;;;5035157;28;20048;-84
2021/12/20 03:08:55;;;;;;;1.92;1.58;;;1.00;99.90;;;;;;5018277;28;20450;-85
2021/12/20 03:11:24;;;;;;;2.15;1.52;;;1.00;99.90;;;;;;5035374;28;20039;-85
2021/12/20 03:13:54;;;;;;;2.90;1.60;;;1.00;99.90;;;;;;5018050;28;20040;-85
2021/12/20 03:16:20;;;;;;;2.80;2.13;;;1.00;99.90;;;;;;5019188;28;20426;-84
2021/12/20 03:18:46;;;;;;;2.78;2.10;;;1.00;99.90;;;;;;5036980;28;20391;-85
2021/12/20 03:21:13;;;;;;;2.75;2.00;;;1.00;99.90;;;;;;5035037;28;20033;-85
2021/12/20 03:23:39;;;;;;;3.50;2.30;;;1.00;99.90;;;;;;5019019;28;20030;-85
2021/12/20 03:26:05;;;;;;;4.90;2.90;;;0.90;99.90;;;;;;5035665;28;20529;-85
2021/12/20 03:28:30;;;;;;;4.28;2.67;;;0.90;99.90;;;;;;5017684;28;20365;-84
2021/12/20 03:30:56;;;;;;;4.45;3.17;;;0.90;99.90;;;;;;5035929;28;20033;-84
2021/12/20 03:33:22;;;;;;;4.18;2.88;;;0.90;99.90;;;;;;5034688;28;20037;-84
2021/12/20 03:35:47;;;;;;;4.88;3.10;;;0.90;99.90;;;;;;5034224;28;20037;-85
2021/12/20 03:38:13;;;;;;;3.75;2.65;;;0.90;99.90;;;;;;5018145;28;20033;-84
2021/12/20 03:40:39;;;;;;;4.05;2.67;;;0.90;99.90;;;;;;5035985;28;20041;-86
2021/12/20 03:43:06;;;;;;;4.32;2.90;;;0.90;99.90;;;;;;5035521;28;20064;-85
2021/12/20 03:45:33;;;;;;;4.13;2.80;;;0.90;99.90;;;;;;5013224;28;20052;-84
2021/12/20 03:47:59;;;;;;;4.22;3.00;;;0.90;99.90;;;;;;5017510;28;20124;-84
2021/12/20 03:50:27;;;;;;;4.72;3.00;;;0.90;99.90;;;;;;5016761;28;20045;-85
2021/12/20 03:52:53;;;;;;;3.35;2.35;;;0.90;99.90;;;;;;5016985;28;20037;-85
2021/12/20 03:55:18;;;;;;;3.67;2.70;;;0.90;99.90;;;;;;5033317;28;20037;-85
2021/12/20 03:57:44;;;;;;;4.32;3.00;;;0.90;99.90;;;;;;5032601;28;20041;-85
2021/12/20 04:00:13;;;;;;;4.03;2.95;;;0.90;99.90;;;;;;5014599;28;20030;-85
2021/12/20 04:02:42;;;;;;;4.38;3.00;;;0.90;99.90;;;;;;5015163;28;20037;-85
2021/12/20 04:05:11;;;;;;;4.93;3.10;;;1.00;99.90;;;;;;5015872;28;20045;-86
2021/12/20 04:07:37;;;;;;;4.72;2.90;;;1.00;99.90;;;;;;5034575;28;20476;-87
2021/12/20 04:10:03;;;;;;;4.93;2.60;;;1.00;99.90;;;;;;5016489;28;20041;-86
2021/12/20 04:12:29;;;;;;;3.72;2.70;;;1.00;99.90;;;;;;5016402;28;20037;-85
2021/12/20 04:14:55;;;;;;;4.15;2.55;;;1.00;99.90;;;;;;5032404;28;20458;-85
2021/12/20 04:17:21;;;;;;;3.97;2.80;;;1.00;99.90;;;;;;5033387;28;20077;-88
2021/12/20 04:19:46;;;;;;;4.18;2.60;;;1.00;99.90;;;;;;5015844;28;20045;-86
2021/12/20 04:22:14;;;;;;;3.97;2.75;;;1.00;99.90;;;;;;5015083;28;20037;-85
2021/12/20 04:24:40;;;;;;;3.67;2.53;;;1.00;99.90;;;;;;5016530;28;20047;-85
2021/12/20 04:27:06;;;;;;;3.60;2.40;;;1.00;99.90;;;;;;5015529;28;20479;-85
2021/12/20 04:29:33;;;;;;;3.85;2.47;;;1.10;99.90;;;;;;5017044;28;20033;-85
2021/12/20 04:32:02;;;;;;;3.53;2.35;;;1.00;99.90;;;;;;5034074;28;20522;-84
2021/12/20 04:34:28;;;;;;;4.13;2.30;;;1.10;99.90;;;;;;5019893;28;20451;-89
2021/12/20 04:36:55;;;;;;;2.80;2.30;;;1.10;99.90;;;;;;5021661;28;20029;-89
2021/12/20 04:39:25;;;;;;;3.65;2.13;;;1.00;99.90;;;;;;5020439;28;20099;-88
2021/12/20 04:41:51;;;;;;;2.43;1.97;;;1.00;99.90;;;;;;5035335;28;20052;-89
2021/12/20 04:44:17;;;;;;;3.33;2.20;;;1.10;99.90;;;;;;4955826;28;1257047;-90
2021/12/20 04:46:42;;;;;;;2.72;2.30;;;1.00;99.90;;;;;;5016371;28;20132;-89
2021/12/20 04:49:08;;;;;;;2.35;1.70;;;1.10;99.90;;;;;;5016468;28;20403;-88
2021/12/20 04:51:34;;;;;;;3.13;2.20;;;1.00;99.90;;;;;;5015488;28;20037;-90
2021/12/20 04:54:00;;;;;;;2.53;1.92;;;1.10;99.90;;;;;;5015368;28;20029;-89
2021/12/20 04:56:25;;;;;;;2.63;2.22;;;1.10;99.90;;;;;;5015660;28;20045;-89
2021/12/20 04:58:51;;;;;;;2.58;1.92;;;1.10;99.90;;;;;;5030982;28;20044;-90
2021/12/20 05:01:17;;;;;;;3.97;2.33;;;1.10;99.90;;;;;;5019883;28;20033;-92
2021/12/20 05:03:42;;;;;;;4.63;2.35;;;1.10;99.90;;;;;;5022001;28;20128;-91
2021/12/20 05:06:08;;;;;;;4.55;2.55;;;1.10;99.90;;;;;;5023469;28;20043;-90
2021/12/20 05:08:36;;;;;;;4.00;2.45;;;1.10;99.90;;;;;;5022984;28;20079;-89
2021/12/20 05:11:06;;;;;;;5.00;2.58;;;1.10;99.90;;;;;;5018351;28;20503;-91
2021/12/20 05:13:34;;;;;;;3.72;2.67;;;1.10;99.90;;;;;;5037046;28;20040;-90
2021/12/20 05:16:01;;;;;;;3.92;2.30;;;1.10;99.90;;;;;;5019781;28;20056;-87
2021/12/20 05:18:37;;;;;;;2.70;2.10;;;1.10;99.90;;;;;;5017901;28;20045;-88
2021/12/20 05:21:03;;;;;;;3.78;2.22;;;1.20;99.90;;;;;;5018082;28;20456;-88
2021/12/20 05:23:28;;;;;;;3.50;2.40;;;1.20;99.90;;;;;;5017990;28;20099;-88
2021/12/20 05:25:55;;;;;;;3.45;1.95;;;1.10;99.90;;;;;;5017778;28;20038;-87
2021/12/20 05:28:22;;;;;;;3.25;1.98;;;1.10;99.90;;;;;;5016246;28;20037;-90
2021/12/20 05:30:50;;;;;;;3.50;2.10;;;1.10;99.90;;;;;;4997932;28;20087;-87
2021/12/20 05:33:16;;;;;;;4.13;2.38;;;1.10;99.90;;;;;;5014818;28;20589;-88
2021/12/20 05:35:42;;;;;;;3.42;2.08;;;1.10;99.90;;;;;;5015798;28;20124;-85
2021/12/20 05:38:07;;;;;;;2.83;1.90;;;1.20;99.90;;;;;;5017197;28;20026;-88
2021/12/20 05:40:35;;;;;;;2.35;1.77;;;1.20;99.90;;;;;;5034795;28;20080;-84
2021/12/20 05:43:01;;;;;;;2.95;1.70;;;1.20;99.90;;;;;;5021481;28;20045;-84
2021/12/20 05:45:28;;;;;;;3.25;1.70;;;1.20;99.90;;;;;;5030890;28;20041;-85
2021/12/20 05:47:53;;;;;;;2.88;2.10;;;1.20;99.90;;;;;;5026552;28;20037;-87
2021/12/20 05:50:21;;;;;;;4.93;3.00;;;1.20;99.90;;;;;;5004677;28;20033;-85
2021/12/20 05:52:47;;;;;;;5.00;2.97;;;1.20;99.90;;;;;;5017278;28;20038;-85
2021/12/20 05:55:14;;;;;;;6.88;4.13;;;1.20;99.90;;;;;;5032968;28;20087;-88
2021/12/20 05:57:39;;;;;;;8.63;4.30;;;1.20;99.90;;;;;;5014531;28;20041;-86
2021/12/20 06:00:14;;;;;;;6.10;3.83;;;1.20;99.90;;;;;;5013616;28;20038;-86
2021/12/20 06:02:45;;;;;;;7.20;3.55;;;1.30;99.90;;;;;;5014432;28;20041;-86
2021/12/20 06:05:11;;;;;;;4.60;2.92;;;1.30;99.90;;;;;;5014372;28;20049;-85
2021/12/20 06:07:42;;;;;;;3.83;2.50;;;1.30;99.90;;;;;;5032049;28;20025;-86
2021/12/20 06:10:12;;;;;;;4.30;2.17;;;1.30;99.90;;;;;;5028808;28;20044;-85
2021/12/20 06:12:39;;;;;;;3.33;2.13;;;1.30;99.90;;;;;;5030409;28;20021;-85
2021/12/20 06:15:06;;;;;;;2.78;1.80;;;1.30;99.90;;;;;;5032777;28;20033;-85
2021/12/20 06:17:32;;;;;;;3.63;1.90;;;1.30;99.90;;;;;;5018000;28;20042;-85
2021/12/20 06:19:58;;;;;;;3.40;1.75;;;1.30;99.90;;;;;;5025145;28;20172;-86
2021/12/20 06:22:23;;;;;;;2.65;1.90;;;1.30;99.90;;;;;;5007846;28;20494;-87
2021/12/20 06:24:49;;;;;;;4.78;2.25;;;1.30;99.90;;;;;;5012476;28;20499;-82
2021/12/20 06:27:15;;;;;;;2.95;1.80;;;1.30;99.90;;;;;;5015165;28;20377;-85
2021/12/20 06:29:40;;;;;;;3.20;2.15;;;1.30;99.90;;;;;;4981273;28;20337;-84
2021/12/20 06:32:06;;;;;;;7.85;4.22;;;1.30;99.90;;;;;;4998223;28;20045;-85
2021/12/20 06:34:32;;;;;;;6.55;4.03;;;1.30;99.90;;;;;;5016951;28;20180;-85
2021/12/20 06:36:58;;;;;;;5.78;3.03;;;1.40;99.90;;;;;;5013550;28;20488;-84
2021/12/20 06:39:23;;;;;;;4.82;2.78;;;1.40;99.90;;;;;;4997554;28;20038;-86
2021/12/20 06:42:07;;;;;;;4.55;2.42;;;1.40;99.90;;;;;;4996408;28;20041;-81
2021/12/20 06:44:33;;;;;;;3.95;2.13;;;1.50;99.90;;;;;;4976633;28;20053;-83
2021/12/20 06:46:59;;;;;;;3.92;2.10;;;1.50;99.90;;;;;;4978547;28;20038;-82
2021/12/20 06:49:25;;;;;;;2.63;1.92;;;1.50;99.90;;;;;;4979186;28;20105;-82
2021/12/20 06:51:53;;;;;;;4.53;2.60;;;1.50;99.90;;;;;;4997444;28;20065;-82
2021/12/20 06:54:19;;;;;;;7.93;4.00;;;1.60;99.90;;;;;;4979943;28;20039;-81
2021/12/20 06:56:46;;;;;;;5.95;3.40;;;1.50;99.90;;;;;;4997737;28;20085;-81
2021/12/20 06:59:11;;;;;;;5.82;3.55;;;1.60;99.90;;;;;;4997232;28;20032;-82
2021/12/20 07:01:38;;;;;;;6.65;3.35;;;1.60;99.90;;;;;;4996697;28;20035;-82
2021/12/20 07:04:04;;;;;;;5.10;2.75;;;1.60;99.90;;;;;;4979288;28;20488;-82
2021/12/20 07:06:30;;;;;;;3.80;2.28;;;1.60;99.90;;;;;;4996304;28;20049;-81
2021/12/20 07:08:56;;;;;;;3.92;2.20;;;1.60;99.90;;;;;;4997310;28;20117;-82
2021/12/20 07:11:23;;;;;;;5.15;2.47;;;1.70;99.90;;;;;;4996766;28;20132;-82
2021/12/20 07:13:50;;;;;;;4.35;2.60;;;1.70;99.90;;;;;;4997357;28;20532;-83
2021/12/20 07:16:15;;;;;;;5.53;2.85;;;1.80;99.90;;;;;;4979865;28;20045;-85
2021/12/20 07:18:41;;;;;;;13.95;6.65;;;1.80;99.90;;;;;;4997206;28;20113;-83
2021/12/20 07:21:07;;;;;;;16.08;8.82;;;1.90;99.90;;;;;;4996770;28;20521;-90
2021/12/20 07:23:34;;;;;;;11.13;5.78;;;1.90;99.90;;;;;;4997097;28;20038;-87
2021/12/20 07:26:01;;;;;;;9.68;5.10;;;2.00;99.90;;;;;;4979648;28;20042;-86
2021/12/20 07:28:27;;;;;;;6.45;3.80;;;2.10;99.90;;;;;;4978308;28;20054;-87
2021/12/20 07:30:53;;;;;;;5.40;3.20;;;2.10;99.90;;;;;;4977261;28;20120;-86
2021/12/20 07:33:18;;;;;;;5.93;2.97;;;2.10;99.90;;;;;;4994742;28;20176;-86
2021/12/20 07:35:45;;;;;;;4.30;2.40;;;2.10;99.90;;;;;;4996041;28;20535;-85
2021/12/20 07:38:13;;;;;;;4.15;2.65;;;2.10;99.90;;;;;;4978204;28;20030;-85
2021/12/20 07:40:47;;;;;;;6.00;2.97;;;2.10;99.90;;;;;;4977822;28;20027;-86
2021/12/20 07:43:14;;;;;;;5.13;2.72;;;2.00;99.90;;;;;;5004499;28;20060;-86
2021/12/20 07:45:42;;;;;;;5.88;2.80;;;2.00;99.90;;;;;;5014824;28;20145;-86
2021/12/20 07:48:07;;;;;;;8.82;4.28;;;2.00;99.90;;;;;;5016413;28;20058;-86
2021/12/20 07:50:33;;;;;;;10.68;5.78;;;2.00;99.90;;;;;;5016889;28;20030;-85
2021/12/20 07:52:59;;;;;;;9.43;5.03;;;2.00;99.90;;;;;;5015601;28;20037;-85
2021/12/20 07:55:25;;;;;;;12.50;5.00;;;2.00;99.90;;;;;;5015164;28;20093;-86
2021/12/20 07:57:51;;;;;;;9.70;4.85;;;2.10;99.90;;;;;;4997039;28;20479;-85
2021/12/20 08:00:17;;;;;;;10.60;4.47;;;2.10;99.90;;;;;;4998007;28;20042;-85
2021/12/20 08:02:44;;;;;;;9.88;3.88;;;2.10;99.90;;;;;;5014477;28;20038;-86
2021/12/20 08:05:13;;;;;;;7.47;3.58;;;2.10;99.90;;;;;;5014273;28;20053;-86
2021/12/20 08:07:39;;;;;;;7.75;3.47;;;2.20;99.90;;;;;;5016115;28;20038;-86
2021/12/20 08:10:05;;;;;;;6.20;3.35;;;2.20;99.90;;;;;;5015991;28;20109;-86
2021/12/20 08:12:31;;;;;;;7.43;3.53;;;2.30;99.90;;;;;;5015356;28;20041;-86
2021/12/20 08:14:56;;;;;;;5.97;3.30;;;2.30;99.90;;;;;;5014835;28;20041;-86
2021/12/20 08:17:22;;;;;;;6.43;3.45;;;2.20;99.90;;;;;;5016664;28;20026;-87
2021/12/20 08:19:48;;;;;;;5.43;3.40;;;2.30;99.90;;;;;;4999094;28;20387;-86
2021/12/20 08:22:14;;;;;;;7.40;3.97;;;2.30;99.90;;;;;;4998189;28;20037;-85
2021/12/20 08:24:39;;;;;;;6.80;4.35;;;2.30;99.90;;;;;;5014418;28;20098;-85
2021/12/20 08:27:05;;;;;;;7.90;4.40;;;2.40;99.90;;;;;;4998535;28;20080;-86
2021/12/20 08:29:31;;;;;;;6.05;3.70;;;2.40;99.90;;;;;;5014724;28;20037;-87
2021/12/20 08:32:02;;;;;;;6.15;3.65;;;2.40;99.90;;;;;;4999026;28;20034;-86
2021/12/20 08:34:30;;;;;;;6.05;2.88;;;2.50;99.90;;;;;;5017078;28;20066;-85
2021/12/20 08:36:57;;;;;;;4.50;2.40;;;2.50;99.90;;;;;;5015112;28;20088;-85
2021/12/20 08:39:23;;;;;;;4.18;2.42;;;2.50;99.90;;;;;;5014029;28;20465;-85
2021/12/20 08:41:49;;;;;;;3.90;2.38;;;2.60;99.90;;;;;;4997010;28;20036;-85
2021/12/20 08:44:15;;;;;;;4.32;2.60;;;2.60;99.90;;;;;;5015474;28;20078;-86
2021/12/20 08:46:41;;;;;;;3.75;2.30;;;2.60;99.90;;;;;;4998422;28;20503;-86
2021/12/20 08:49:08;;;;;;;4.47;2.40;;;2.70;99.90;;;;;;4997832;28;20080;-85
2021/12/20 08:51:34;;;;;;;3.60;2.20;;;2.70;99.90;;;;;;5015427;28;20030;-87
2021/12/20 08:54:00;;;;;;;4.63;2.78;;;2.80;99.90;;;;;;5014364;28;20058;-85
2021/12/20 08:56:26;;;;;;;7.38;3.63;;;2.80;99.90;;;;;;5013690;28;20140;-85
2021/12/20 08:58:51;;;;;;;6.75;4.00;;;2.80;99.90;;;;;;5014809;28;20457;-85
2021/12/20 09:01:17;;;;;;;5.32;3.13;;;2.80;99.90;;;;;;5015265;28;20045;-85
2021/12/20 09:03:44;;;;;;;5.53;3.42;;;2.80;99.90;;;;;;5015966;28;20038;-86
2021/12/20 09:06:11;;;;;;;5.22;3.53;;;2.90;99.90;;;;;;5015235;28;20069;-86
2021/12/20 09:08:39;;;;;;;5.35;2.97;;;3.00;99.90;;;;;;5014119;28;20037;-85
2021/12/20 09:11:05;;;;;;;3.22;2.20;;;3.00;99.90;;;;;;5017629;28;20044;-85
2021/12/20 09:13:30;;;;;;;3.10;2.20;;;3.10;99.90;;;;;;5015104;28;20105;-86
2021/12/20 09:15:59;;;;;;;3.28;2.00;;;3.20;99.90;;;;;;5015248;28;20391;-86
2021/12/20 09:18:26;;;;;;;3.15;1.90;;;3.20;99.90;;;;;;5015737;28;20424;-85
2021/12/20 09:20:52;;;;;;;3.50;2.15;;;3.30;99.90;;;;;;5015569;28;20057;-85
2021/12/20 09:23:17;;;;;;;3.92;2.13;;;3.40;99.90;;;;;;5016555;28;20469;-85
2021/12/20 09:25:45;;;;;;;4.45;2.33;;;3.50;99.90;;;;;;5015190;28;20042;-86
2021/12/20 09:28:11;;;;;;;3.58;1.80;;;3.70;99.90;;;;;;4999681;28;20041;-86
2021/12/20 09:30:40;;;;;;;3.15;1.92;;;4.00;99.90;;;;;;5016607;28;20038;-86
2021/12/20 09:33:06;;;;;;;2.50;1.77;;;4.70;99.90;;;;;;5016376;28;20038;-85
2021/12/20 09:35:32;;;;;;;3.15;2.10;;;5.70;99.90;;;;;;5017338;28;20065;-87
2021/12/20 09:37:58;;;;;;;2.70;1.90;;;6.30;99.90;;;;;;5013645;28;20036;-85
2021/12/20 09:41:01;;;;;;;3.53;2.20;;;6.40;99.90;;;;;;5015099;28;20451;-85
2021/12/20 09:43:14;;;;;;;3.22;2.05;;;6.20;99.90;;;;;;5014046;28;20350;-85
2021/12/20 09:45:44;;;;;;;3.78;1.75;;;5.80;99.20;;;;;;4997246;28;20049;-85
2021/12/20 09:48:11;;;;;;;7.28;3.35;;;5.40;99.60;;;;;;5015069;28;20392;-88
2021/12/20 09:50:37;;;;;;;5.38;2.70;;;5.10;99.90;;;;;;5016278;28;20042;-85
2021/12/20 09:53:07;;;;;;;4.38;2.40;;;4.80;99.90;;;;;;5016567;28;20490;-86
2021/12/20 09:55:34;;;;;;;3.60;2.10;;;4.50;99.90;;;;;;5019460;28;20065;-87
2021/12/20 09:58:01;;;;;;;4.05;2.30;;;4.30;99.90;;;;;;5014351;28;20376;-84
2021/12/20 10:00:28;;;;;;;4.10;2.60;;;4.10;99.90;;;;;;5012923;28;20393;-85
2021/12/20 10:02:54;;;;;;;4.13;2.50;;;3.90;99.80;;;;;;5013470;28;20038;-85
2021/12/20 10:05:19;;;;;;;4.85;2.58;;;3.70;99.90;;;;;;5013848;28;20050;-87
2021/12/20 10:07:51;;;;;;;3.03;2.10;;;3.60;99.90;;;;;;4996134;28;20044;-87
2021/12/20 10:10:52;;;;;;;2.95;1.92;;;3.50;99.90;;;;;;4996079;28;20034;-87
2021/12/20 10:13:32;;;;;;;4.65;2.20;;;3.30;98.90;;;;;;4934471;29;20047;-86
2021/12/20 10:15:59;;;;;;;3.08;1.98;;;3.30;99.90;;;;;;5004219;28;20034;-85
2021/12/20 10:18:27;;;;;;;3.08;1.92;;;3.20;99.90;;;;;;5013980;28;20131;-86
2021/12/20 10:20:59;;;;;;;3.13;2.10;;;3.10;99.90;;;;;;5014599;28;20080;-86
2021/12/20 10:23:39;;;;;;;4.70;2.30;;;3.10;99.90;;;;;;5018967;28;20038;-85
2021/12/20 10:26:20;;;;;;;4.83;2.50;;;3.10;99.90;;;;;;5019738;28;20038;-85
2021/12/20 10:28:48;;;;;;;5.00;2.58;;;3.10;99.90;;;;;;5018823;28;20372;-85
2021/12/20 10:31:18;;;;;;;4.57;2.40;;;3.10;99.90;;;;;;5018722;28;20465;-85
2021/12/20 10:33:59;;;;;;;5.57;2.80;;;3.10;99.90;;;;;;5001957;28;20046;-86
2021/12/20 10:36:25;;;;;;;3.80;2.40;;;3.10;99.90;;;;;;5016088;28;20041;-86
2021/12/20 10:38:57;;;;;;;4.95;2.70;;;3.00;99.90;;;;;;5017510;28;20034;-85
2021/12/20 10:41:36;;;;;;;7.68;4.60;;;3.00;99.90;;;;;;5017461;28;20065;-86
2021/12/20 10:44:15;;;;;;;5.82;3.53;;;3.00;99.90;;;;;;5015757;28;20146;-86
2021/12/20 10:46:53;;;;;;;6.65;2.88;;;3.10;99.90;;;;;;5016939;28;20073;-86
2021/12/20 10:49:24;;;;;;;4.45;2.83;;;3.20;99.90;;;;;;4999317;28;20073;-84
2021/12/20 10:51:51;;;;;;;4.10;2.50;;;3.20;99.90;;;;;;5015536;28;20033;-86
2021/12/20 10:54:21;;;;;;;3.08;2.22;;;3.30;99.90;;;;;;5015321;28;20092;-86
2021/12/20 10:57:01;;;;;;;3.35;2.10;;;3.30;99.90;;;;;;5015901;28;20042;-86
2021/12/20 10:59:30;;;;;;;7.25;4.43;;;3.30;99.90;;;;;;5016516;28;20029;-86
2021/12/20 11:05:14;;;;;;;5.90;2.95;;;3.40;99.90;;;;;;5016236;28;20042;-84
2021/12/20 11:10:20;;;;;;;5.55;3.20;;;3.40;99.90;;;;;;5016236;28;20049;-85
2021/12/20 11:12:46;;;;;;;5.20;2.92;;;3.50;99.90;;;;;;5014954;28;20479;-85
2021/12/20 11:15:13;;;;;;;4.95;2.50;;;3.70;99.90;;;;;;5016234;28;20129;-86
2021/12/20 11:17:45;;;;;;;3.90;2.50;;;4.00;99.90;;;;;;5016610;28;20030;-86
2021/12/20 11:20:21;;;;;;;5.32;2.50;;;4.40;99.90;;;;;;5015074;28;20479;-85
2021/12/20 11:22:46;;;;;;;2.60;1.88;;;5.00;99.90;;;;;;5017031;28;20030;-86
2021/12/20 11:25:14;;;;;;;2.33;1.90;;;5.50;99.90;;;;;;5017775;28;20042;-85
2021/12/20 11:27:52;;;;;;;3.40;2.13;;;5.60;96.50;;;;;;5001280;28;20041;-85
2021/12/20 11:30:26;;;;;;;3.17;2.20;;;5.60;93.30;;;;;;5020825;28;20160;-84
2021/12/20 11:32:52;;;;;;;4.40;2.58;;;5.60;93.80;;;;;;5018767;28;20034;-85
2021/12/20 11:35:20;;;;;;;3.65;2.30;;;5.80;96.00;;;;;;5014402;28;20092;-86
2021/12/20 11:37:46;;;;;;;3.65;2.22;;;5.70;94.50;;;;;;5015761;28;20428;-86
2021/12/20 11:40:15;;;;;;;5.13;2.60;;;5.50;93.80;;;;;;5014774;28;20072;-85
2021/12/20 11:42:41;;;;;;;4.40;2.72;;;5.20;93.00;;;;;;4997989;28;20086;-85
2021/12/20 11:45:09;;;;;;;5.18;2.95;;;4.80;94.60;;;;;;5015494;28;20071;-85
2021/12/20 11:47:59;;;;;;;5.43;3.20;;;4.60;94.90;;;;;;5014489;28;20129;-85
2021/12/20 11:50:34;;;;;;;3.97;2.50;;;4.20;91.00;;;;;;5014952;28;20033;-85
2021/12/20 11:53:11;;;;;;;3.25;2.08;;;3.90;94.90;;;;;;5016007;28;20389;-84
2021/12/20 11:55:43;;;;;;;7.70;3.95;;;3.60;94.80;;;;;;5015865;28;20038;-86
2021/12/20 11:58:19;;;;;;;4.88;3.00;;;3.30;96.50;;;;;;5015477;28;20108;-86
2021/12/20 12:01:12;;;;;;;3.75;2.40;;;3.10;97.30;;;;;;4997805;28;20433;-85
2021/12/20 12:03:39;;;;;;;4.22;2.20;;;3.00;98.40;;;;;;5003844;28;20129;-86
2021/12/20 12:06:13;;;;;;;2.50;1.67;;;2.70;99.80;;;;;;5014126;28;20092;-85
2021/12/20 12:08:59;;;;;;;2.42;1.77;;;2.60;99.90;;;;;;5015519;28;20037;-86
2021/12/20 12:11:24;;;;;;;9.20;5.70;;;2.40;99.70;;;;;;5014664;28;20034;-86
2021/12/20 12:14:05;;;;;;;22.20;12.80;;;2.30;99.90;;;;;;5014927;28;20096;-86
2021/12/20 12:16:56;;;;;;;14.37;8.83;;;2.20;99.90;;;;;;4998165;28;20388;-86
2021/12/20 12:19:40;;;;;;;;;;;2.10;99.90;;;;;;5016415;28;20053;-86
2021/12/20 12:22:34;;;;;;;8.00;4.20;;;2.00;99.90;;;;;;5019139;28;19909;-86
2021/12/20 12:25:01;;;;;;;5.18;3.35;;;1.90;99.90;;;;;;5021428;28;20042;-85
2021/12/20 12:27:33;;;;;;;6.53;3.40;;;1.90;99.90;;;;;;5023588;28;20057;-86
2021/12/20 12:30:14;;;;;;;4.70;2.53;;;1.90;99.90;;;;;;5015045;28;20041;-86
2021/12/20 12:32:49;;;;;;;3.38;2.15;;;1.90;99.90;;;;;;4997478;28;20044;-85
2021/12/20 12:35:39;;;;;;;3.33;1.90;;;1.90;99.90;;;;;;4997287;28;20073;-85
2021/12/20 12:38:14;;;;;;;3.67;2.30;;;2.00;99.90;;;;;;5015068;28;20046;-87
2021/12/20 12:40:40;;;;;;;4.43;2.30;;;2.10;99.90;;;;;;4997239;28;20037;-87
2021/12/20 12:43:06;;;;;;;8.82;5.63;;;2.50;99.90;;;;;;5012925;28;20157;-86
2021/12/20 12:45:54;;;;;;;15.90;9.32;;;3.00;99.90;;;;;;5013956;28;20133;-85
2021/12/20 12:48:46;;;;;;;9.25;5.00;;;3.40;99.90;;;;;;5014441;28;20069;-86
2021/12/20 12:51:20;;;;;;;5.80;3.25;;;3.70;99.90;;;;;;5014071;28;20129;-85
2021/12/20 12:53:56;;;;;;;4.30;2.80;;;4.00;99.90;;;;;;5015069;28;20053;-85
2021/12/20 12:56:32;;;;;;;4.55;2.60;;;4.00;99.90;;;;;;5014859;28;20073;-87
2021/12/20 12:59:14;;;;;;;5.13;2.42;;;3.90;99.00;;;;;;4996769;28;20041;-87
2021/12/20 13:02:24;;;;;;;3.63;2.40;;;3.70;97.20;;;;;;5014121;28;20046;-85
2021/12/20 13:04:58;;;;;;;3.67;2.70;;;3.50;98.10;;;;;;4997513;28;20457;-85
2021/12/20 13:07:25;;;;;;;3.90;2.90;;;3.30;99.90;;;;;;5013845;28;20091;-85
2021/12/20 13:09:53;;;;;;;4.00;2.50;;;3.10;99.90;;;;;;5013719;28;20084;-86
2021/12/20 13:12:30;;;;;;;5.70;3.40;;;2.90;99.90;;;;;;5014394;28;20030;-85
2021/12/20 13:17:34;;;;;;;7.22;4.00;;;2.60;99.90;;;;;;5014765;28;20326;-85
2021/12/20 13:21:01;;;;;;;6.47;4.40;;;2.40;99.90;;;;;;5014873;28;20092;-86
2021/12/20 13:23:31;;;;;;;7.05;4.20;;;2.30;99.90;;;;;;5012832;28;20034;-86
2021/12/20 13:25:59;;;;;;;9.75;5.03;;;2.20;99.90;;;;;;5017470;28;20073;-85
2021/12/20 13:28:34;;;;;;;9.93;5.47;;;2.10;99.90;;;;;;4997747;28;20030;-87
2021/12/20 13:31:14;;;;;;;8.57;4.70;;;2.10;99.90;;;;;;5012410;28;20034;-90